createdAt,value
2018-10-11T00:00:33.000Z,15.34
2018-10-11T00:01:13.476Z,15.33
2018-10-11T00:01:53.790Z,15.25
2018-10-11T00:02:34.142Z,15.21
2018-10-11T00:03:14.412Z,15.28
2018-10-11T00:03:54.680Z,15.39
2018-10-11T00:04:35.210Z,15.35
2018-10-11T00:05:15.403Z,15.27
2018-10-11T00:05:55.751Z,15.29
2018-10-11T00:06:36.005Z,15.27
2018-10-11T00:07:16.311Z,15.27
2018-10-11T00:07:56.541Z,15.29
2018-10-11T00:08:36.977Z,15.22
2018-10-11T00:09:18.125Z,15.21
2018-10-11T00:09:58.536Z,15.26
2018-10-11T00:10:38.902Z,15.22
2018-10-11T00:11:19.060Z,15.29
2018-10-11T00:11:59.427Z,15.38
2018-10-11T00:12:39.841Z,15.31
2018-10-11T00:13:20.121Z,15.22
2018-10-11T00:14:00.308Z,15.26
2018-10-11T00:14:40.547Z,15.22
2018-10-11T00:15:20.775Z,15.23
2018-10-11T00:16:01.176Z,15.29
2018-10-11T00:16:41.367Z,15.26
2018-10-11T00:17:21.696Z,15.32
2018-10-11T00:18:02.056Z,15.27
2018-10-11T00:19:17.186Z,15.20
2018-10-11T00:19:57.423Z,15.23
2018-10-11T00:20:37.982Z,15.18
2018-10-11T00:21:18.329Z,15.13
2018-10-11T00:21:58.932Z,15.09
2018-10-11T00:22:39.461Z,15.02
2018-10-11T00:23:19.646Z,15.02
2018-10-11T00:23:59.848Z,15.04
2018-10-11T00:24:40.287Z,14.94
2018-10-11T00:25:20.810Z,14.96
2018-10-11T00:26:00.960Z,14.95
2018-10-11T00:26:41.201Z,15.02
2018-10-11T00:27:21.812Z,15.03
2018-10-11T00:28:01.945Z,15.11
2018-10-11T00:28:42.229Z,15.08
2018-10-11T00:29:22.500Z,15.05
2018-10-11T00:30:02.815Z,15.01
2018-10-11T00:30:43.007Z,14.98
2018-10-11T00:31:23.474Z,15.18
2018-10-11T00:32:03.684Z,15.09
2018-10-11T00:32:44.108Z,14.98
2018-10-11T00:33:24.343Z,15.04
2018-10-11T00:34:04.649Z,15.05
2018-10-11T00:34:44.934Z,15.16
2018-10-11T00:35:25.646Z,15.24
2018-10-11T00:36:05.965Z,15.28
2018-10-11T00:36:46.132Z,15.18
2018-10-11T00:37:26.528Z,15.24
2018-10-11T00:38:06.960Z,15.25
2018-10-11T00:38:47.436Z,15.19
2018-10-11T00:39:27.773Z,15.19
2018-10-11T00:40:09.980Z,15.15
2018-10-11T00:40:50.118Z,15.16
2018-10-11T00:41:30.346Z,15.14
2018-10-11T00:42:10.551Z,15.23
2018-10-11T00:42:50.823Z,15.26
2018-10-11T00:43:31.259Z,15.19
2018-10-11T00:44:14.870Z,15.22
2018-10-11T00:44:55.144Z,15.22
2018-10-11T00:45:35.333Z,15.25
2018-10-11T00:46:15.448Z,15.24
2018-10-11T00:47:01.015Z,15.18
2018-10-11T00:47:41.423Z,15.10
2018-10-11T00:48:21.718Z,15.04
2018-10-11T00:49:01.938Z,15.08
2018-10-11T00:49:42.317Z,15.02
2018-10-11T00:50:22.892Z,15.07
2018-10-11T00:51:03.716Z,15.13
2018-10-11T00:51:43.888Z,15.11
2018-10-11T00:52:24.066Z,15.01
2018-10-11T00:53:04.404Z,15.02
2018-10-11T00:53:44.540Z,15.08
2018-10-11T00:54:24.741Z,15.14
2018-10-11T00:55:05.499Z,15.18
2018-10-11T00:55:45.851Z,15.22
2018-10-11T00:56:26.212Z,15.21
2018-10-11T00:57:07.460Z,15.25
2018-10-11T00:57:47.711Z,15.19
2018-10-11T00:58:28.088Z,15.13
2018-10-11T00:59:09.263Z,15.14
2018-10-11T00:59:49.452Z,15.14
2018-10-11T01:00:29.941Z,15.14
2018-10-11T01:01:10.168Z,15.06
2018-10-11T01:01:50.429Z,15.03
2018-10-11T01:02:30.911Z,15.01
2018-10-11T01:03:11.152Z,14.99
2018-10-11T01:03:51.347Z,15.12
2018-10-11T01:04:31.515Z,15.06
2018-10-11T01:05:11.681Z,14.99
2018-10-11T01:05:51.961Z,14.99
2018-10-11T01:06:32.340Z,14.94
2018-10-11T01:07:12.490Z,14.90
2018-10-11T01:07:53.044Z,14.96
2018-10-11T01:08:33.369Z,14.99
2018-10-11T01:09:13.565Z,15.06
2018-10-11T01:09:54.011Z,15.01
2018-10-11T01:10:34.444Z,14.98
2018-10-11T01:11:14.721Z,14.94
2018-10-11T01:11:54.963Z,14.95
2018-10-11T01:12:35.255Z,14.95
2018-10-11T01:13:15.866Z,15.11
2018-10-11T01:13:56.380Z,15.12
2018-10-11T01:14:36.712Z,15.08
2018-10-11T01:15:17.225Z,14.98
2018-10-11T01:15:57.538Z,14.94
2018-10-11T01:16:37.775Z,14.87
2018-10-11T01:17:17.978Z,14.84
2018-10-11T01:17:58.381Z,14.84
2018-10-11T01:18:38.724Z,14.86
2018-10-11T01:19:19.498Z,14.85
2018-10-11T01:20:00.028Z,14.78
2018-10-11T01:20:40.652Z,14.82
2018-10-11T01:21:20.992Z,14.78
2018-10-11T01:22:02.215Z,14.73
2018-10-11T01:22:42.480Z,14.81
2018-10-11T01:23:22.853Z,14.81
2018-10-11T01:24:03.113Z,14.74
2018-10-11T01:24:43.300Z,14.77
2018-10-11T01:25:23.733Z,14.99
2018-10-11T01:26:05.140Z,14.99
2018-10-11T01:26:48.456Z,14.87
2018-10-11T01:27:29.071Z,14.84
2018-10-11T01:28:09.396Z,14.81
2018-10-11T01:28:49.667Z,14.77
2018-10-11T01:29:30.327Z,14.78
2018-10-11T01:30:10.637Z,14.93
2018-10-11T01:30:56.556Z,14.90
2018-10-11T01:31:36.962Z,14.81
2018-10-11T01:32:17.141Z,14.93
2018-10-11T01:32:57.508Z,14.94
2018-10-11T01:33:37.864Z,15.02
2018-10-11T01:34:18.120Z,14.96
2018-10-11T01:34:58.776Z,14.87
2018-10-11T01:35:38.893Z,14.96
2018-10-11T01:36:19.382Z,14.87
2018-10-11T01:36:59.834Z,14.87
2018-10-11T01:37:40.129Z,14.95
2018-10-11T01:38:20.505Z,15.02
2018-10-11T01:39:00.864Z,15.00
2018-10-11T01:39:41.596Z,14.94
2018-10-11T01:40:22.008Z,14.94
2018-10-11T01:41:02.859Z,14.95
2018-10-11T01:41:43.599Z,14.82
2018-10-11T01:42:24.697Z,14.86
2018-10-11T01:43:06.254Z,14.84
2018-10-11T01:43:46.781Z,14.83
2018-10-11T01:44:27.312Z,14.80
2018-10-11T01:45:08.076Z,14.94
2018-10-11T01:45:48.756Z,14.83
2018-10-11T01:46:29.826Z,14.75
2018-10-11T01:47:10.402Z,14.75
2018-10-11T01:47:51.048Z,14.77
2018-10-11T01:48:31.629Z,14.82
2018-10-11T01:49:12.014Z,14.82
2018-10-11T01:49:52.592Z,14.93
2018-10-11T01:50:33.692Z,14.92
2018-10-11T01:51:14.327Z,14.82
2018-10-11T01:51:54.753Z,14.94
2018-10-11T01:52:35.556Z,14.94
2018-10-11T01:53:15.724Z,14.94
2018-10-11T01:53:56.731Z,14.97
2018-10-11T01:54:37.109Z,14.89
2018-10-11T01:55:17.817Z,14.81
2018-10-11T01:55:58.175Z,14.75
2018-10-11T01:56:38.702Z,14.81
2018-10-11T01:57:19.173Z,14.86
2018-10-11T01:57:59.764Z,14.79
2018-10-11T01:58:40.117Z,14.70
2018-10-11T01:59:20.404Z,14.62
2018-10-11T02:00:00.753Z,14.60
2018-10-11T02:00:40.944Z,14.56
2018-10-11T02:01:21.307Z,14.59
2018-10-11T02:02:01.669Z,14.76
2018-10-11T02:02:42.252Z,14.68
2018-10-11T02:03:22.432Z,14.59
2018-10-11T02:04:03.074Z,14.50
2018-10-11T02:04:43.497Z,14.45
2018-10-11T02:05:24.239Z,14.51
2018-10-11T02:06:04.793Z,14.50
2018-10-11T02:06:45.155Z,14.51
2018-10-11T02:07:25.658Z,14.57
2018-10-11T02:08:06.275Z,14.61
2018-10-11T02:08:46.488Z,14.58
2018-10-11T02:09:26.962Z,14.54
2018-10-11T02:10:08.231Z,14.51
2018-10-11T02:10:48.411Z,14.52
2018-10-11T02:11:29.065Z,14.51
2018-10-11T02:12:09.530Z,14.45
2018-10-11T02:12:49.634Z,14.41
2018-10-11T02:13:30.205Z,14.54
2018-10-11T02:14:10.573Z,14.63
2018-10-11T02:14:50.936Z,14.59
2018-10-11T02:15:31.254Z,14.49
2018-10-11T02:16:11.517Z,14.41
2018-10-11T02:16:51.856Z,14.40
2018-10-11T02:17:32.243Z,14.44
2018-10-11T02:18:12.463Z,14.47
2018-10-11T02:18:52.631Z,14.48
2018-10-11T02:19:33.069Z,14.43
2018-10-11T02:20:13.304Z,14.42
2018-10-11T02:20:53.404Z,14.37
2018-10-11T02:21:33.778Z,14.29
2018-10-11T02:22:13.983Z,14.36
2018-10-11T02:22:54.708Z,14.41
2018-10-11T02:23:35.312Z,14.56
2018-10-11T02:24:15.615Z,14.51
2018-10-11T02:24:56.026Z,14.38
2018-10-11T02:25:36.577Z,14.45
2018-10-11T02:26:18.660Z,14.59
2018-10-11T02:26:58.974Z,14.56
2018-10-11T02:27:39.522Z,14.58
2018-10-11T02:28:19.692Z,14.55
2018-10-11T02:29:00.242Z,14.48
2018-10-11T02:29:41.074Z,14.45
2018-10-11T02:30:21.164Z,14.41
2018-10-11T02:31:01.254Z,14.47
2018-10-11T02:31:40.912Z,14.39
2018-10-11T02:32:21.226Z,14.36
2018-10-11T02:33:01.407Z,14.30
2018-10-11T02:33:41.584Z,14.25
2018-10-11T02:34:21.643Z,14.25
2018-10-11T02:35:01.868Z,14.21
2018-10-11T02:35:42.162Z,14.25
2018-10-11T02:36:22.510Z,14.25
2018-10-11T02:37:02.626Z,14.21
2018-10-11T02:37:43.272Z,14.23
2018-10-11T02:38:23.461Z,14.27
2018-10-11T02:39:04.772Z,14.30
2018-10-11T02:39:44.883Z,14.23
2018-10-11T02:40:25.202Z,14.23
2018-10-11T02:41:05.448Z,14.33
2018-10-11T02:41:45.745Z,14.37
2018-10-11T02:42:26.728Z,14.50
2018-10-11T02:43:07.018Z,14.48
2018-10-11T02:43:47.204Z,14.39
2018-10-11T02:44:27.466Z,14.41
2018-10-11T02:45:07.999Z,14.35
2018-10-11T02:45:48.175Z,14.35
2018-10-11T02:46:28.744Z,14.37
2018-10-11T02:47:08.979Z,14.34
2018-10-11T02:47:49.374Z,14.34
2018-10-11T02:48:29.631Z,14.35
2018-10-11T02:49:09.875Z,14.32
2018-10-11T02:49:50.037Z,14.33
2018-10-11T02:50:30.360Z,14.41
2018-10-11T02:51:10.629Z,14.55
2018-10-11T02:51:50.774Z,14.51
2018-10-11T02:52:31.177Z,14.46
2018-10-11T02:53:11.522Z,14.37
2018-10-11T02:53:52.124Z,14.44
2018-10-11T02:54:32.629Z,14.38
2018-10-11T02:55:20.343Z,14.35
2018-10-11T02:56:00.715Z,14.31
2018-10-11T02:56:41.052Z,14.27
2018-10-11T02:57:32.544Z,14.23
2018-10-11T02:58:23.718Z,14.31
2018-10-11T02:59:29.672Z,14.48
2018-10-11T03:00:10.357Z,14.42
2018-10-11T03:00:50.805Z,14.53
2018-10-11T03:01:31.435Z,14.47
2018-10-11T03:02:14.200Z,14.31
2018-10-11T03:02:54.581Z,14.36
2018-10-11T03:03:35.034Z,14.26
2018-10-11T03:04:15.433Z,14.30
2018-10-11T03:04:56.080Z,14.49
2018-10-11T03:05:38.859Z,14.55
2018-10-11T03:06:19.167Z,14.41
2018-10-11T03:06:59.833Z,14.30
2018-10-11T03:07:40.221Z,14.22
2018-10-11T03:08:22.687Z,14.00
2018-10-11T03:09:03.209Z,14.18
2018-10-11T03:09:43.912Z,14.18
2018-10-11T03:10:24.257Z,14.10
2018-10-11T03:11:04.787Z,14.16
2018-10-11T03:11:45.181Z,14.22
2018-10-11T03:12:25.605Z,14.25
2018-10-11T03:13:08.746Z,14.19
2018-10-11T03:13:49.026Z,14.14
2018-10-11T03:14:29.471Z,14.20
2018-10-11T03:15:10.133Z,14.12
2018-10-11T03:15:50.279Z,13.98
2018-10-11T03:16:30.610Z,13.96
2018-10-11T03:17:11.164Z,14.02
2018-10-11T03:17:51.347Z,14.11
2018-10-11T03:18:34.719Z,14.10
2018-10-11T03:19:15.115Z,14.03
2018-10-11T03:19:55.582Z,14.01
2018-10-11T03:20:36.757Z,14.03
2018-10-11T03:21:16.904Z,13.93
2018-10-11T03:21:57.324Z,13.94
2018-10-11T03:22:37.716Z,13.92
2018-10-11T03:23:18.106Z,13.85
2018-10-11T03:23:58.494Z,13.96
2018-10-11T03:24:38.868Z,13.88
2018-10-11T03:25:19.220Z,13.83
2018-10-11T03:26:00.265Z,13.85
2018-10-11T03:26:40.569Z,13.90
2018-10-11T03:27:20.800Z,13.88
2018-10-11T03:28:01.124Z,13.86
2018-10-11T03:28:41.425Z,13.91
2018-10-11T03:29:21.753Z,13.90
2018-10-11T03:30:02.449Z,13.86
2018-10-11T03:30:43.140Z,13.85
2018-10-11T03:31:23.516Z,13.79
2018-10-11T03:32:03.908Z,13.85
2018-10-11T03:32:44.107Z,13.97
2018-10-11T03:33:24.697Z,13.86
2018-10-11T03:34:05.316Z,13.85
2018-10-11T03:34:45.569Z,13.82
2018-10-11T03:35:26.266Z,13.81
2018-10-11T03:36:06.891Z,13.80
2018-10-11T03:36:47.616Z,13.78
2018-10-11T03:37:27.988Z,13.79
2018-10-11T03:38:08.395Z,13.74
2018-10-11T03:38:48.604Z,13.73
2018-10-11T03:39:29.567Z,13.70
2018-10-11T03:40:09.704Z,13.90
2018-10-11T03:40:50.000Z,13.87
2018-10-11T03:41:30.403Z,14.02
2018-10-11T03:42:10.729Z,13.94
2018-10-11T03:42:51.094Z,13.81
2018-10-11T03:43:31.430Z,13.62
2018-10-11T03:44:11.636Z,13.80
2018-10-11T03:44:51.896Z,13.83
2018-10-11T03:45:32.227Z,13.95
2018-10-11T03:46:12.709Z,14.03
2018-10-11T03:46:53.034Z,13.96
2018-10-11T03:47:33.775Z,13.93
2018-10-11T03:48:13.921Z,13.90
2018-10-11T03:48:54.092Z,13.84
2018-10-11T03:49:34.517Z,13.81
2018-10-11T03:50:14.809Z,13.80
2018-10-11T03:50:55.147Z,13.93
2018-10-11T03:51:35.561Z,13.88
2018-10-11T03:52:15.920Z,13.82
2018-10-11T03:52:57.168Z,13.76
2018-10-11T03:53:37.417Z,13.87
2018-10-11T03:54:18.139Z,13.83
2018-10-11T03:54:58.265Z,13.86
2018-10-11T03:55:38.561Z,13.86
2018-10-11T03:56:18.856Z,13.90
2018-10-11T03:56:59.422Z,13.90
2018-10-11T03:57:40.021Z,13.83
2018-10-11T03:58:20.215Z,13.74
2018-10-11T03:59:00.418Z,13.75
2018-10-11T03:59:40.680Z,13.84
2018-10-11T04:00:20.990Z,13.93
2018-10-11T04:01:00.691Z,13.81
2018-10-11T04:01:40.919Z,13.86
2018-10-11T04:02:21.199Z,13.94
2018-10-11T04:03:01.569Z,13.85
2018-10-11T04:03:42.358Z,13.80
2018-10-11T04:04:22.633Z,13.77
2018-10-11T04:05:03.289Z,13.75
2018-10-11T04:05:44.408Z,13.74
2018-10-11T04:06:25.249Z,13.64
2018-10-11T04:07:05.069Z,13.62
2018-10-11T04:07:45.530Z,13.64
2018-10-11T04:08:25.933Z,13.62
2018-10-11T04:09:07.086Z,13.62
2018-10-11T04:09:46.810Z,13.53
2018-10-11T04:10:27.217Z,13.56
2018-10-11T04:11:07.913Z,13.43
2018-10-11T04:11:48.248Z,13.59
2018-10-11T04:12:28.666Z,13.57
2018-10-11T04:13:08.892Z,13.66
2018-10-11T04:13:49.066Z,13.61
2018-10-11T04:14:30.047Z,13.57
2018-10-11T04:15:10.278Z,13.61
2018-10-11T04:15:50.373Z,13.57
2018-10-11T04:16:30.647Z,13.61
2018-10-11T04:17:10.963Z,13.59
2018-10-11T04:17:51.264Z,13.59
2018-10-11T04:18:31.708Z,13.57
2018-10-11T04:19:11.928Z,13.76
2018-10-11T04:19:52.088Z,13.81
2018-10-11T04:20:32.696Z,13.72
2018-10-11T04:21:12.868Z,13.60
2018-10-11T04:21:52.991Z,13.64
2018-10-11T04:22:33.292Z,13.78
2018-10-11T04:23:29.120Z,13.79
2018-10-11T04:24:09.445Z,13.74
2018-10-11T04:24:49.687Z,13.70
2018-10-11T04:25:30.353Z,13.86
2018-10-11T04:26:10.904Z,13.79
2018-10-11T04:26:51.136Z,13.72
2018-10-11T04:27:31.651Z,13.70
2018-10-11T04:28:12.042Z,13.60
2018-10-11T04:28:52.283Z,13.68
2018-10-11T04:29:32.700Z,13.64
2018-10-11T04:30:12.886Z,13.60
2018-10-11T04:30:53.229Z,13.70
2018-10-11T04:31:33.824Z,13.59
2018-10-11T04:32:14.176Z,13.49
2018-10-11T04:32:54.897Z,13.55
2018-10-11T04:33:35.347Z,13.58
2018-10-11T04:34:15.922Z,13.59
2018-10-11T04:34:56.349Z,13.56
2018-10-11T04:35:36.716Z,13.49
2018-10-11T04:36:17.005Z,13.44
2018-10-11T04:36:57.722Z,13.45
2018-10-11T04:37:38.103Z,13.38
2018-10-11T04:38:18.359Z,13.40
2018-10-11T04:38:58.775Z,13.30
2018-10-11T04:39:39.054Z,13.33
2018-10-11T04:40:19.197Z,13.41
2018-10-11T04:40:59.646Z,13.63
2018-10-11T04:41:39.892Z,13.52
2018-10-11T04:42:20.060Z,13.41
2018-10-11T04:43:00.508Z,13.40
2018-10-11T04:43:41.025Z,13.29
2018-10-11T04:44:21.149Z,13.40
2018-10-11T04:45:01.447Z,13.37
2018-10-11T04:45:43.261Z,13.35
2018-10-11T04:46:23.462Z,13.38
2018-10-11T04:47:05.030Z,13.51
2018-10-11T04:47:45.505Z,13.45
2018-10-11T04:48:25.870Z,13.44
2018-10-11T04:49:06.182Z,13.38
2018-10-11T04:49:46.429Z,13.43
2018-10-11T04:50:26.852Z,13.34
2018-10-11T04:51:07.634Z,13.34
2018-10-11T04:51:47.899Z,13.37
2018-10-11T04:52:28.256Z,13.31
2018-10-11T04:53:08.534Z,13.27
2018-10-11T04:53:54.906Z,13.28
2018-10-11T04:54:35.336Z,13.46
2018-10-11T04:55:18.823Z,13.42
2018-10-11T04:55:59.369Z,13.42
2018-10-11T04:56:39.809Z,13.41
2018-10-11T04:57:20.100Z,13.51
2018-10-11T04:58:00.465Z,13.48
2018-10-11T04:58:40.923Z,13.54
2018-10-11T04:59:21.172Z,13.54
2018-10-11T05:00:01.720Z,13.64
2018-10-11T05:00:41.780Z,13.53
2018-10-11T05:01:22.007Z,13.46
2018-10-11T05:02:02.751Z,13.38
2018-10-11T05:02:42.538Z,13.42
2018-10-11T05:03:22.269Z,13.40
2018-10-11T05:04:03.150Z,13.36
2018-10-11T05:04:43.457Z,13.34
2018-10-11T05:05:23.945Z,13.49
2018-10-11T05:06:04.494Z,13.52
2018-10-11T05:06:44.633Z,13.59
2018-10-11T05:07:25.048Z,13.61
2018-10-11T05:08:06.018Z,13.51
2018-10-11T05:08:46.320Z,13.62
2018-10-11T05:09:26.915Z,13.54
2018-10-11T05:10:07.833Z,13.59
2018-10-11T05:10:48.072Z,13.56
2018-10-11T05:11:28.507Z,13.43
2018-10-11T05:12:08.664Z,13.43
2018-10-11T05:12:48.956Z,13.45
2018-10-11T05:13:37.943Z,13.39
2018-10-11T05:14:18.064Z,13.36
2018-10-11T05:14:57.877Z,13.49
2018-10-11T05:15:38.409Z,13.60
2018-10-11T05:16:18.932Z,13.54
2018-10-11T05:16:58.889Z,13.49
2018-10-11T05:17:38.590Z,13.53
2018-10-11T05:18:19.737Z,13.43
2018-10-11T05:19:03.140Z,13.27
2018-10-11T05:19:43.033Z,13.35
2018-10-11T05:20:23.312Z,13.37
2018-10-11T05:21:03.789Z,13.43
2018-10-11T05:21:44.804Z,13.50
2018-10-11T05:22:25.105Z,13.53
2018-10-11T05:23:05.418Z,13.39
2018-10-11T05:23:46.280Z,13.43
2018-10-11T05:24:26.623Z,13.42
2018-10-11T05:25:06.867Z,13.39
2018-10-11T05:25:46.984Z,13.32
2018-10-11T05:26:28.040Z,13.29
2018-10-11T05:27:08.727Z,13.25
2018-10-11T05:27:48.593Z,13.28
2018-10-11T05:28:28.289Z,13.33
2018-10-11T05:29:08.668Z,13.32
2018-10-11T05:29:48.720Z,13.31
2018-10-11T05:30:29.126Z,13.26
2018-10-11T05:31:09.931Z,13.36
2018-10-11T05:31:50.080Z,13.29
2018-10-11T05:32:30.806Z,13.31
2018-10-11T05:33:10.380Z,13.44
2018-10-11T05:33:50.029Z,13.37
2018-10-11T05:34:30.445Z,13.34
2018-10-11T05:35:10.666Z,13.36
2018-10-11T05:35:50.182Z,13.43
2018-10-11T05:36:30.471Z,13.34
2018-10-11T05:37:11.040Z,13.31
2018-10-11T05:37:50.626Z,13.31
2018-10-11T05:38:30.906Z,13.39
2018-10-11T05:39:11.101Z,13.38
2018-10-11T05:39:51.309Z,13.34
2018-10-11T05:40:31.621Z,13.35
2018-10-11T05:41:11.484Z,13.29
2018-10-11T05:41:51.277Z,13.28
2018-10-11T05:42:31.631Z,13.33
2018-10-11T05:43:12.463Z,13.28
2018-10-11T05:43:52.656Z,13.34
2018-10-11T05:44:33.651Z,13.30
2018-10-11T05:45:18.758Z,13.24
2018-10-11T05:46:00.651Z,13.39
2018-10-11T05:46:40.932Z,13.28
2018-10-11T05:47:21.103Z,13.29
2018-10-11T05:48:01.374Z,13.28
2018-10-11T05:48:41.775Z,13.30
2018-10-11T05:49:21.980Z,13.24
2018-10-11T05:50:02.581Z,13.41
2018-10-11T05:50:42.725Z,13.42
2018-10-11T05:51:22.903Z,13.34
2018-10-11T05:52:02.600Z,13.30
2018-10-11T05:52:43.606Z,13.33
2018-10-11T05:53:23.876Z,13.33
2018-10-11T05:54:05.466Z,13.18
2018-10-11T05:54:45.716Z,13.33
2018-10-11T05:55:25.992Z,13.36
2018-10-11T05:56:06.469Z,13.41
2018-10-11T05:56:46.745Z,13.18
2018-10-11T05:57:27.191Z,13.34
2018-10-11T05:58:07.572Z,13.34
2018-10-11T05:58:47.884Z,13.30
2018-10-11T05:59:28.572Z,13.24
2018-10-11T06:00:10.168Z,13.20
2018-10-11T06:00:50.537Z,13.17
2018-10-11T06:01:31.539Z,13.18
2018-10-11T06:02:11.927Z,13.16
2018-10-11T06:03:01.506Z,13.24
2018-10-11T06:03:42.948Z,13.20
2018-10-11T06:04:23.316Z,13.21
2018-10-11T06:05:04.122Z,13.18
2018-10-11T06:05:44.861Z,13.19
2018-10-11T06:06:25.284Z,13.18
2018-10-11T06:07:05.621Z,13.14
2018-10-11T06:07:46.246Z,13.15
2018-10-11T06:08:26.937Z,13.21
2018-10-11T06:09:08.396Z,13.19
2018-10-11T06:09:48.312Z,13.20
2018-10-11T06:10:30.010Z,13.21
2018-10-11T06:11:10.271Z,13.22
2018-10-11T06:11:50.703Z,13.23
2018-10-11T06:12:31.155Z,13.22
2018-10-11T06:13:12.136Z,13.20
2018-10-11T06:13:52.605Z,13.32
2018-10-11T06:14:33.225Z,13.41
2018-10-11T06:15:13.992Z,13.53
2018-10-11T06:15:54.447Z,13.49
2018-10-11T06:16:34.791Z,13.43
2018-10-11T06:17:15.167Z,13.51
2018-10-11T06:17:56.022Z,13.50
2018-10-11T06:18:36.624Z,13.49
2018-10-11T06:19:16.845Z,13.42
2018-10-11T06:19:57.335Z,13.42
2018-10-11T06:20:37.866Z,13.38
2018-10-11T06:21:18.125Z,13.34
2018-10-11T06:21:58.932Z,13.37
2018-10-11T06:22:39.236Z,13.44
2018-10-11T06:23:19.792Z,13.50
2018-10-11T06:24:00.548Z,13.54
2018-10-11T06:24:41.450Z,13.59
2018-10-11T06:25:22.100Z,13.47
2018-10-11T06:26:02.757Z,13.47
2018-10-11T06:26:43.387Z,13.42
2018-10-11T06:27:23.682Z,13.57
2018-10-11T06:28:04.344Z,13.32
2018-10-11T06:28:44.705Z,13.63
2018-10-11T06:29:25.580Z,13.56
2018-10-11T06:30:06.274Z,13.72
2018-10-11T06:30:46.993Z,13.69
2018-10-11T06:31:28.025Z,13.68
2018-10-11T06:32:09.256Z,13.61
2018-10-11T06:32:49.802Z,13.64
2018-10-11T06:33:30.320Z,13.70
2018-10-11T06:34:11.008Z,13.70
2018-10-11T06:34:51.435Z,13.65
2018-10-11T06:35:31.794Z,13.67
2018-10-11T06:36:12.151Z,13.75
2018-10-11T06:36:52.833Z,13.74
2018-10-11T06:37:33.382Z,13.68
2018-10-11T06:38:13.713Z,13.68
2018-10-11T06:38:54.593Z,13.68
2018-10-11T06:39:35.169Z,13.69
2018-10-11T06:40:15.604Z,13.76
2018-10-11T06:40:56.763Z,13.94
2018-10-11T06:41:37.172Z,14.01
2018-10-11T06:42:17.784Z,13.97
2018-10-11T06:42:59.024Z,13.93
2018-10-11T06:43:40.186Z,13.87
2018-10-11T06:44:20.565Z,13.90
2018-10-11T06:45:01.100Z,13.87
2018-10-11T06:45:42.622Z,13.87
2018-10-11T06:46:22.935Z,13.97
2018-10-11T06:47:03.915Z,14.02
2018-10-11T06:47:45.691Z,13.98
2018-10-11T06:48:26.776Z,14.06
2018-10-11T06:49:07.335Z,13.93
2018-10-11T06:49:47.707Z,13.97
2018-10-11T06:50:28.614Z,13.85
2018-10-11T06:51:09.432Z,13.92
2018-10-11T06:51:49.956Z,13.92
2018-10-11T06:52:30.343Z,13.87
2018-10-11T06:53:10.928Z,13.85
2018-10-11T06:53:51.844Z,13.86
2018-10-11T06:54:32.636Z,13.92
2018-10-11T06:55:12.853Z,14.06
2018-10-11T06:55:53.224Z,14.00
2018-10-11T06:56:33.855Z,14.01
2018-10-11T06:57:14.180Z,14.08
2018-10-11T06:57:54.892Z,14.06
2018-10-11T06:58:35.299Z,14.03
2018-10-11T06:59:15.495Z,14.04
2018-10-11T06:59:55.671Z,14.08
2018-10-11T07:00:35.422Z,14.12
2018-10-11T07:01:15.500Z,14.19
2018-10-11T07:01:55.907Z,14.14
2018-10-11T07:02:36.429Z,14.12
2018-10-11T07:03:16.563Z,13.96
2018-10-11T07:03:56.987Z,13.87
2018-10-11T07:04:37.256Z,13.95
2018-10-11T07:05:17.489Z,14.01
2018-10-11T07:05:57.853Z,13.91
2018-10-11T07:06:38.214Z,13.85
2018-10-11T07:07:18.539Z,13.92
2018-10-11T07:07:59.423Z,13.94
2018-10-11T07:08:39.668Z,13.86
2018-10-11T07:09:19.976Z,13.87
2018-10-11T07:10:00.560Z,13.87
2018-10-11T07:10:40.652Z,13.88
2018-10-11T07:11:20.185Z,13.92
2018-10-11T07:12:00.480Z,13.79
2018-10-11T07:12:40.625Z,13.81
2018-10-11T07:13:20.786Z,13.76
2018-10-11T07:14:00.999Z,13.79
2018-10-11T07:14:41.309Z,13.64
2018-10-11T07:15:21.491Z,13.72
2018-10-11T07:16:02.212Z,13.73
2018-10-11T07:16:41.825Z,13.65
2018-10-11T07:17:22.032Z,13.57
2018-10-11T07:18:02.951Z,13.44
2018-10-11T07:18:43.242Z,13.33
2018-10-11T07:19:23.686Z,13.34
2018-10-11T07:20:04.079Z,13.44
2018-10-11T07:20:44.549Z,13.55
2018-10-11T07:21:24.859Z,13.60
2018-10-11T07:22:05.704Z,13.58
2018-10-11T07:22:46.121Z,13.48
2018-10-11T07:23:26.280Z,13.47
2018-10-11T07:24:06.656Z,13.58
2018-10-11T07:24:46.938Z,13.59
2018-10-11T07:25:27.457Z,13.57
2018-10-11T07:26:08.018Z,13.66
2018-10-11T07:26:48.248Z,13.71
2018-10-11T07:27:28.771Z,13.64
2018-10-11T07:28:09.446Z,13.84
2018-10-11T07:28:49.735Z,13.66
2018-10-11T07:29:30.110Z,13.74
2018-10-11T07:30:09.781Z,13.79
2018-10-11T07:30:50.241Z,13.80
2018-10-11T07:31:30.589Z,13.80
2018-10-11T07:32:10.720Z,13.82
2018-10-11T07:32:50.459Z,13.87
2018-10-11T07:33:30.707Z,13.89
2018-10-11T07:34:10.768Z,13.92
2018-10-11T07:34:51.313Z,14.05
2018-10-11T07:35:32.063Z,14.16
2018-10-11T07:36:12.395Z,14.26
2018-10-11T07:36:52.736Z,14.33
2018-10-11T07:37:33.213Z,14.22
2018-10-11T07:38:13.319Z,14.31
2018-10-11T07:38:53.468Z,14.30
2018-10-11T07:39:33.781Z,14.33
2018-10-11T07:40:14.015Z,14.32
2018-10-11T07:40:54.379Z,14.32
2018-10-11T07:41:34.900Z,14.40
2018-10-11T07:42:14.550Z,14.43
2018-10-11T07:42:54.956Z,14.37
2018-10-11T07:43:35.427Z,14.34
2018-10-11T07:44:15.722Z,14.44
2018-10-11T07:44:56.484Z,14.48
2018-10-11T07:45:37.058Z,14.47
2018-10-11T07:46:17.344Z,14.42
2018-10-11T07:46:57.895Z,14.49
2018-10-11T07:47:38.381Z,14.48
2018-10-11T07:48:18.635Z,14.47
2018-10-11T07:48:59.255Z,14.47
2018-10-11T07:49:39.744Z,14.53
2018-10-11T07:50:20.234Z,14.52
2018-10-11T07:51:00.879Z,14.54
2018-10-11T07:51:41.065Z,14.59
2018-10-11T07:52:21.255Z,14.59
2018-10-11T07:53:01.901Z,14.53
2018-10-11T07:53:42.470Z,14.51
2018-10-11T07:54:27.052Z,14.41
2018-10-11T07:55:07.511Z,14.47
2018-10-11T07:55:47.771Z,14.52
2018-10-11T07:56:28.370Z,14.48
2018-10-11T07:57:08.023Z,14.41
2018-10-11T07:57:48.356Z,14.46
2018-10-11T07:58:28.624Z,14.63
2018-10-11T07:59:08.882Z,14.62
2018-10-11T07:59:49.260Z,14.49
2018-10-11T08:00:29.770Z,14.46
2018-10-11T08:01:10.112Z,14.48
2018-10-11T08:01:50.645Z,14.51
2018-10-11T08:02:31.428Z,14.66
2018-10-11T08:03:12.063Z,14.73
2018-10-11T08:03:52.494Z,14.70
2018-10-11T08:04:32.758Z,14.54
2018-10-11T08:05:12.928Z,14.62
2018-10-11T08:05:53.196Z,14.68
2018-10-11T08:06:33.575Z,14.68
2018-10-11T08:07:14.080Z,14.76
2018-10-11T08:07:54.663Z,14.85
2018-10-11T08:08:35.167Z,14.82
2018-10-11T08:09:15.636Z,14.92
2018-10-11T08:09:56.255Z,14.90
2018-10-11T08:10:36.474Z,14.88
2018-10-11T08:11:16.880Z,14.84
2018-10-11T08:11:57.597Z,14.82
2018-10-11T08:12:38.154Z,14.82
2018-10-11T08:13:18.648Z,14.98
2018-10-11T08:13:59.552Z,14.99
2018-10-11T08:14:39.888Z,14.99
2018-10-11T08:15:20.155Z,15.09
2018-10-11T08:16:00.826Z,15.15
2018-10-11T08:16:41.510Z,15.24
2018-10-11T08:17:22.209Z,15.23
2018-10-11T08:18:02.767Z,15.27
2018-10-11T08:18:43.198Z,15.31
2018-10-11T08:19:23.543Z,15.33
2018-10-11T08:20:04.043Z,15.35
2018-10-11T08:20:44.492Z,15.35
2018-10-11T08:21:24.787Z,15.40
2018-10-11T08:22:05.340Z,15.42
2018-10-11T08:22:45.656Z,15.41
2018-10-11T08:23:26.000Z,15.49
2018-10-11T08:24:06.459Z,15.53
2018-10-11T08:24:46.865Z,15.33
2018-10-11T08:25:27.558Z,15.55
2018-10-11T08:26:09.754Z,15.50
2018-10-11T08:26:49.858Z,15.52
2018-10-11T08:27:30.352Z,15.49
2018-10-11T08:28:10.770Z,15.57
2018-10-11T08:28:51.092Z,15.61
2018-10-11T08:29:31.460Z,15.56
2018-10-11T08:30:11.766Z,15.52
2018-10-11T08:30:52.252Z,15.37
2018-10-11T08:31:32.635Z,15.44
2018-10-11T08:32:13.473Z,15.42
2018-10-11T08:32:53.962Z,15.27
2018-10-11T08:33:34.691Z,15.51
2018-10-11T08:34:14.879Z,15.54
2018-10-11T08:34:55.403Z,15.58
2018-10-11T08:35:36.366Z,15.62
2018-10-11T08:36:16.891Z,15.72
2018-10-11T08:36:57.518Z,15.73
2018-10-11T08:37:37.991Z,15.83
2018-10-11T08:38:18.538Z,15.77
2018-10-11T08:38:59.121Z,15.79
2018-10-11T08:39:39.264Z,15.97
2018-10-11T08:40:19.473Z,15.88
2018-10-11T08:40:59.990Z,15.74
2018-10-11T08:41:40.504Z,15.87
2018-10-11T08:42:20.808Z,15.75
2018-10-11T08:43:01.380Z,15.73
2018-10-11T08:43:41.528Z,15.75